Time;durP1;ratioP1;P1;durP2;ratioP2;P2;SDS_P1;SDS_P2;PMS_P1;PMS_P2;Temp;Humidity;BMP_temperature;BMP_pressure;BME280_temperature;BME280_humidity;BME280_pressure;Samples;Min_cycle;Max_cycle;Signal;HPM_P1;HPM_P2
2022/12/21 00:01:23;;;;;;;8.63;5.70;;;10.60;91.30;;;11.02;57.45;98562.69;4957768;28;124072;-73
2022/12/21 00:03:55;;;;;;;9.90;5.83;;;10.60;91.40;;;10.99;57.34;98566.91;4951184;28;124718;-74
2022/12/21 00:06:24;;;;;;;13.23;6.97;;;10.60;91.40;;;10.97;57.67;98560.06;4952893;28;114294;-78
2022/12/21 00:08:54;;;;;;;10.50;5.70;;;10.60;91.50;;;10.95;57.89;98554.84;4954465;28;114009;-76
2022/12/21 00:11:22;;;;;;;12.17;6.70;;;10.60;91.50;;;10.93;58.11;98551.59;4941368;28;124142;-77
2022/12/21 00:13:49;;;;;;;10.07;6.07;;;10.50;91.50;;;10.93;57.84;98556.31;4939683;28;123891;-75
2022/12/21 00:16:20;;;;;;;11.17;6.43;;;10.50;91.50;;;10.91;57.97;98559.41;4944506;28;114009;-75
2022/12/21 00:18:48;;;;;;;12.57;6.30;;;10.50;91.60;;;10.90;58.14;98549.47;4949395;28;113981;-75
2022/12/21 00:21:21;;;;;;;11.30;6.30;;;10.50;91.60;;;10.91;58.36;98548.34;4949879;28;124051;-74
2022/12/21 00:23:51;;;;;;;13.80;7.37;;;10.50;91.70;;;10.88;58.44;98535.19;4947590;28;125424;-76
2022/12/21 00:26:21;;;;;;;10.70;5.80;;;10.50;91.70;;;10.88;58.61;98540.69;4934221;28;113833;-74
2022/12/21 00:28:52;;;;;;;7.07;4.43;;;10.50;91.80;;;10.89;58.54;98538.75;4932426;28;113927;-76
2022/12/21 00:31:23;;;;;;;6.13;3.70;;;10.50;91.90;;;10.93;58.84;98540.53;4946309;28;124168;-76
2022/12/21 00:33:50;;;;;;;3.37;2.20;;;10.50;92.00;;;11.00;58.77;98540.06;4947934;28;123430;-76
2022/12/21 00:36:19;;;;;;;3.47;2.50;;;11.30;92.50;;;11.05;58.63;98546.25;4950138;28;115236;-76
2022/12/21 00:38:47;;;;;;;3.67;2.33;;;11.70;92.70;;;11.15;59.02;98549.84;4946528;28;115220;-77
2022/12/21 00:41:16;;;;;;;4.13;2.40;;;10.60;92.30;;;11.23;58.69;98543.50;4945409;28;124942;-78
2022/12/21 00:43:44;;;;;;;3.97;2.43;;;10.70;92.40;;;11.29;58.80;98542.25;4949860;28;122749;-77
2022/12/21 00:46:15;;;;;;;2.70;2.20;;;10.80;92.40;;;11.36;59.07;98533.44;4949507;28;114248;-77
2022/12/21 00:48:42;;;;;;;2.90;1.87;;;10.80;92.40;;;11.42;58.36;98538.50;4946513;28;113070;-76
2022/12/21 00:51:12;;;;;;;5.00;2.33;;;11.00;92.50;;;11.48;58.51;98528.91;4939803;28;124161;-76
2022/12/21 00:53:39;;;;;;;3.37;2.40;;;10.90;92.40;;;11.55;58.64;98538.66;4931091;28;122614;-76
2022/12/21 00:56:08;;;;;;;3.47;2.57;;;12.80;93.20;;;11.59;58.63;98540.47;4946449;28;114690;-77
2022/12/21 00:58:35;;;;;;;3.10;2.00;;;11.10;92.40;;;11.65;58.29;98532.81;4944630;28;114277;-76
2022/12/21 01:01:14;;;;;;;2.97;2.03;;;11.10;92.40;;;11.69;58.48;98540.13;4939040;28;122890;-76
2022/12/21 01:03:41;;;;;;;4.10;2.07;;;11.20;92.40;;;11.72;58.51;98538.69;4933997;28;123810;-78
2022/12/21 01:06:17;;;;;;;3.70;2.10;;;11.20;92.30;;;11.77;58.45;98532.97;4948284;28;114295;-79
2022/12/21 01:08:44;;;;;;;9.10;2.73;;;11.20;92.30;;;11.81;58.28;98539.47;4951823;28;113895;-75
2022/12/21 01:11:13;;;;;;;2.07;1.80;;;11.30;92.30;;;11.85;58.20;98542.41;4947419;28;124291;-75
2022/12/21 01:13:40;;;;;;;4.50;2.30;;;11.40;92.20;;;11.88;57.73;98548.13;4946456;28;123386;-75
2022/12/21 01:16:20;;;;;;;4.17;2.33;;;11.40;92.20;;;11.91;58.28;98539.19;4941117;28;114309;-75
2022/12/21 01:18:47;;;;;;;3.07;2.10;;;11.40;92.10;;;11.94;57.71;98541.28;4948768;28;114086;-76
2022/12/21 01:21:17;;;;;;;2.80;2.23;;;11.50;92.10;;;11.99;57.77;98543.06;4945538;28;123914;-74
2022/12/21 01:23:44;;;;;;;3.17;2.40;;;11.50;92.00;;;12.00;57.48;98533.63;4945932;28;122443;-76
2022/12/21 01:26:11;;;;;;;2.93;2.10;;;11.50;92.00;;;12.03;57.55;98537.69;4945444;28;115221;-78
2022/12/21 01:28:39;;;;;;;4.80;2.20;;;11.50;91.90;;;12.04;57.39;98544.88;4940743;28;114951;-76
2022/12/21 01:31:06;;;;;;;5.33;2.53;;;11.50;91.90;;;12.06;57.51;98546.16;4943478;28;123991;-75
2022/12/21 01:33:33;;;;;;;3.23;2.40;;;12.60;92.40;;;12.07;57.31;98544.22;4948872;28;124050;-76
2022/12/21 01:36:05;;;;;;;2.83;2.20;;;11.60;91.90;;;12.10;57.46;98540.78;4951833;28;114821;-75
2022/12/21 01:38:32;;;;;;;7.70;2.07;;;11.60;91.90;;;12.11;57.34;98543.19;4949663;28;113218;-74
2022/12/21 01:40:59;;;;;;;3.50;2.23;;;11.60;91.90;;;12.11;57.23;98545.16;4947117;28;124465;-75
2022/12/21 01:43:46;;;;;;;3.00;2.10;;;11.60;91.90;;;12.13;57.27;98549.22;4948888;28;123786;-74
2022/12/21 01:46:50;;;;;;;3.50;2.23;;;11.70;91.90;;;12.14;57.47;98533.41;4948744;28;114398;-75
2022/12/21 01:49:30;;;;;;;3.70;2.30;;;11.70;91.90;;;12.14;57.56;98536.19;4920525;28;113965;-75
2022/12/21 01:52:03;;;;;;;3.90;1.90;;;11.70;91.90;;;12.16;57.67;98536.69;4949481;28;123126;-76
2022/12/21 01:54:42;;;;;;;4.80;2.00;;;12.90;92.50;;;12.15;57.60;98535.06;4947634;28;124661;-75
2022/12/21 01:57:11;;;;;;;3.37;2.33;;;11.70;92.00;;;12.13;57.84;98520.72;4947110;28;114209;-75
2022/12/21 01:59:47;;;;;;;5.70;2.33;;;11.70;92.10;;;12.14;57.81;98523.19;4950104;28;113894;-74
2022/12/21 02:02:21;;;;;;;5.00;2.10;;;11.80;92.20;;;12.14;57.71;98528.72;4948305;28;124125;-74
2022/12/21 02:04:50;;;;;;;2.37;2.00;;;11.70;92.20;;;12.12;58.47;98517.16;4946770;28;123736;-75
2022/12/21 02:07:19;;;;;;;2.93;1.97;;;11.60;92.20;;;12.13;58.58;98515.19;4952027;28;114216;-74
2022/12/21 02:09:46;;;;;;;7.63;1.83;;;11.70;92.40;;;12.12;58.76;98519.13;4945225;28;111991;-74
2022/12/21 02:12:31;;;;;;;4.80;1.90;;;11.70;92.50;;;12.12;58.91;98513.56;4948232;28;124472;-81
2022/12/21 02:14:58;;;;;;;3.77;2.10;;;11.70;92.60;;;12.09;58.95;98509.50;4942517;28;123665;-74
2022/12/21 02:17:51;;;;;;;4.33;2.40;;;11.60;92.70;;;12.06;59.25;98501.88;4947244;28;115554;-75
2022/12/21 02:20:54;;;;;;;2.77;2.00;;;11.60;92.80;;;12.04;59.54;98500.56;4945205;28;114993;-76
2022/12/21 02:23:23;;;;;;;5.80;2.50;;;11.60;92.90;;;12.01;59.71;98506.72;4955117;28;124376;-75
2022/12/21 02:26:11;;;;;;;4.23;2.30;;;11.60;93.00;;;12.01;59.90;98498.44;4956838;28;122843;-77
2022/12/21 02:29:17;;;;;;;3.30;2.27;;;11.60;93.10;;;11.98;60.25;98501.84;4945970;28;114135;-74
2022/12/21 02:32:11;;;;;;;3.00;2.30;;;11.60;93.40;;;11.96;60.52;98504.16;4939787;28;113941;-74
2022/12/21 02:35:22;;;;;;;4.07;2.50;;;11.50;93.50;;;11.94;60.75;98508.06;4947527;28;124071;-75
2022/12/21 02:38:15;;;;;;;5.40;1.80;;;11.50;93.50;;;11.91;60.64;98505.94;4966778;28;122585;-75
2022/12/21 02:41:12;;;;;;;4.63;2.13;;;11.60;93.80;;;11.91;61.10;98502.38;4949448;28;114112;-75
2022/12/21 02:47:14;;;;;;;3.10;1.93;;;11.50;93.90;;;11.90;61.22;98504.34;4952634;28;124923;-75
2022/12/21 02:49:58;;;;;;;3.07;2.10;;;11.50;94.00;;;11.90;61.80;98501.56;4940812;28;123933;-74
2022/12/21 02:52:32;;;;;;;3.90;2.23;;;11.50;94.10;;;11.92;61.85;98510.34;4949622;28;114275;-74
2022/12/21 02:55:01;;;;;;;3.00;1.80;;;11.50;94.20;;;11.92;61.81;98499.25;4950285;28;114519;-75
2022/12/21 02:57:37;;;;;;;4.37;1.90;;;11.50;94.30;;;11.93;62.11;98489.84;4950653;28;125473;-74
2022/12/21 03:00:16;;;;;;;4.63;2.70;;;11.50;94.40;;;11.93;62.40;98492.59;4934547;28;123345;-75
2022/12/21 03:06:09;;;;;;;2.67;2.10;;;11.50;94.50;;;11.92;62.50;98493.72;4956206;28;114668;-75
2022/12/21 03:08:44;;;;;;;4.53;2.27;;;11.50;94.70;;;11.91;63.07;98486.56;4946238;28;124663;-74
2022/12/21 03:11:10;;;;;;;3.03;2.07;;;11.50;94.80;;;11.90;62.92;98495.19;4944754;28;123602;-74
2022/12/21 03:14:09;;;;;;;2.83;1.97;;;11.50;94.90;;;11.89;62.88;98499.13;4952272;28;115164;-75
2022/12/21 03:16:52;;;;;;;6.43;2.23;;;11.50;95.00;;;11.87;63.17;98488.34;4951347;28;114577;-75
2022/12/21 03:19:32;;;;;;;5.60;2.10;;;11.40;95.10;;;11.86;63.60;98497.00;4950918;28;124574;-74
2022/12/21 03:22:12;;;;;;;2.17;1.77;;;11.50;95.20;;;11.84;63.40;98491.75;4948732;28;123768;-74
2022/12/21 03:25:07;;;;;;;2.70;1.80;;;11.50;95.30;;;11.83;63.50;98495.69;4951778;28;113926;-75
2022/12/21 03:27:44;;;;;;;3.30;1.70;;;11.40;95.20;;;11.83;63.88;98483.78;4954868;28;114047;-75
2022/12/21 03:30:17;;;;;;;3.77;1.93;;;11.40;95.30;;;11.84;63.98;98497.28;4949158;28;123149;-75
2022/12/21 03:32:51;;;;;;;5.73;2.77;;;11.40;95.40;;;11.86;63.96;98494.25;4951883;28;123746;-74
2022/12/21 03:35:31;;;;;;;3.50;2.20;;;11.50;95.50;;;11.85;63.84;98492.59;4950027;28;114046;-74
2022/12/21 03:38:01;;;;;;;2.90;2.23;;;11.40;95.50;;;11.86;64.07;98494.25;4935534;28;112200;-74
2022/12/21 03:40:32;;;;;;;3.83;2.20;;;11.40;95.60;;;11.85;64.01;98487.88;4950200;28;124094;-74
2022/12/21 03:43:09;;;;;;;4.40;2.10;;;11.50;95.70;;;11.85;64.21;98493.41;4948675;28;123125;-74
2022/12/21 03:45:46;;;;;;;3.50;2.10;;;11.40;95.70;;;11.83;64.23;98484.59;4950907;28;114321;-74
2022/12/21 03:48:21;;;;;;;3.27;1.90;;;11.40;95.70;;;11.85;64.50;98487.06;4950196;28;113829;-75
2022/12/21 03:50:51;;;;;;;2.57;1.73;;;11.40;95.80;;;11.84;64.29;98479.88;4948926;28;123798;-74
2022/12/21 03:53:37;;;;;;;4.87;2.30;;;11.50;95.90;;;11.85;64.76;98481.53;4944140;28;123308;-74
2022/12/21 03:56:07;;;;;;;3.10;1.93;;;11.40;96.00;;;11.83;64.71;98476.31;4935701;28;113599;-74
2022/12/21 03:58:36;;;;;;;6.80;2.07;;;11.40;96.10;;;11.82;64.50;98474.69;4949085;28;113183;-74
2022/12/21 04:01:25;;;;;;;3.60;2.13;;;11.40;96.10;;;11.82;64.72;98474.69;4952144;28;123912;-75
2022/12/21 04:04:03;;;;;;;3.97;2.20;;;11.40;96.10;;;11.82;64.68;98474.69;4948916;28;123548;-75
2022/12/21 04:06:33;;;;;;;3.67;2.20;;;11.40;96.20;;;11.81;64.82;98464.72;4934709;28;114692;-75
2022/12/21 04:09:04;;;;;;;2.50;1.93;;;11.40;96.30;;;11.82;65.01;98476.63;4934592;28;113054;-75
2022/12/21 04:14:22;;;;;;;2.57;1.67;;;11.60;96.40;;;11.78;65.20;98470.94;4965752;28;124856;-75
2022/12/21 04:16:49;;;;;;;3.80;2.30;;;11.40;96.40;;;11.77;65.39;98469.31;4949837;28;114424;-74
2022/12/21 04:20:02;;;;;;;3.20;2.60;;;11.40;96.50;;;11.77;65.52;98463.78;4950448;28;113936;-74
2022/12/21 04:22:02;;;;;;;2.30;1.80;;;11.40;96.50;;;11.74;65.42;98469.97;4947981;28;124363;-74
2022/12/21 04:29:58;;;;;;;3.23;1.87;;;11.40;96.60;;;11.70;65.72;98452.38;4952215;28;114493;-74
2022/12/21 04:32:24;;;;;;;2.40;1.80;;;11.30;96.60;;;11.70;65.68;98460.69;4965426;28;123073;-74
2022/12/21 04:34:51;;;;;;;2.83;1.83;;;11.40;96.70;;;11.71;65.78;98465.06;4950810;28;122670;-75
2022/12/21 04:37:35;;;;;;;1.63;1.43;;;11.90;97.00;;;11.71;66.19;98460.38;4947953;28;114187;-74
2022/12/21 04:40:03;;;;;;;4.60;2.40;;;11.30;96.80;;;11.73;66.10;98462.81;4952149;28;113990;-75
2022/12/21 04:42:29;;;;;;;5.47;2.30;;;11.30;96.80;;;11.75;66.20;98459.72;4949664;28;124657;-74
2022/12/21 04:44:56;;;;;;;5.60;2.10;;;11.30;96.90;;;11.77;66.00;98466.56;4949419;28;123665;-75
2022/12/21 04:47:22;;;;;;;2.43;1.73;;;11.70;97.10;;;11.79;66.24;98461.47;4949759;28;114459;-74
2022/12/21 04:49:49;;;;;;;2.90;1.90;;;11.40;97.10;;;11.79;66.14;98460.66;4949973;28;113976;-74
2022/12/21 04:52:17;;;;;;;2.80;1.90;;;11.40;97.00;;;11.81;66.17;98459.19;4948380;28;124217;-74
2022/12/21 04:54:43;;;;;;;2.30;2.10;;;11.40;97.00;;;11.83;66.27;98458.88;4950028;28;123838;-75
2022/12/21 04:57:10;;;;;;;3.60;2.00;;;11.40;97.10;;;11.84;66.28;98452.19;4948584;28;115170;-75
2022/12/21 04:59:36;;;;;;;5.07;2.00;;;11.40;97.20;;;11.85;66.47;98454.66;4949301;28;115053;-74
2022/12/21 05:02:03;;;;;;;2.07;1.73;;;11.40;97.20;;;11.87;66.30;98452.38;4948059;28;124008;-75
2022/12/21 05:04:29;;;;;;;3.83;1.73;;;11.40;97.20;;;11.89;66.17;98452.06;4952830;28;123734;-75
2022/12/21 05:06:57;;;;;;;2.10;1.50;;;11.50;97.20;;;11.90;66.72;98451.75;4950299;28;114204;-74
2022/12/21 05:09:25;;;;;;;1.73;1.60;;;11.50;97.20;;;11.93;66.51;98444.72;4949773;28;114015;-75
2022/12/21 05:11:55;;;;;;;5.80;2.30;;;11.50;97.20;;;11.95;66.46;98445.19;4948376;28;123945;-74
2022/12/21 05:14:22;;;;;;;1.97;1.77;;;11.50;97.30;;;11.96;66.27;98446.84;4948880;28;123806;-75
2022/12/21 05:16:49;;;;;;;1.60;1.40;;;11.50;97.30;;;11.98;66.25;98454.78;4948954;28;114154;-75
2022/12/21 05:19:16;;;;;;;3.13;1.70;;;11.50;97.30;;;12.00;66.33;98449.75;4943683;28;113988;-75
2022/12/21 05:21:42;;;;;;;2.67;1.60;;;12.40;97.70;;;12.02;66.46;98444.69;4927559;28;123484;-75
2022/12/21 05:24:09;;;;;;;2.20;1.80;;;11.60;97.30;;;12.05;66.31;98446.78;4949924;28;123873;-75
2022/12/21 05:26:36;;;;;;;2.40;1.70;;;11.60;97.40;;;12.05;66.60;98444.84;4941347;28;114308;-75
2022/12/21 05:29:02;;;;;;;4.70;1.83;;;11.90;97.50;;;12.05;66.65;98446.78;4947292;28;113838;-75
2022/12/21 05:31:29;;;;;;;1.80;1.70;;;11.60;97.40;;;12.06;66.40;98442.88;4948856;28;123097;-75
2022/12/21 05:33:56;;;;;;;2.93;1.60;;;11.60;97.50;;;12.07;66.77;98448.09;4951633;28;123911;-75
2022/12/21 05:36:23;;;;;;;3.17;1.70;;;11.60;97.50;;;12.08;66.61;98446.94;4950988;28;114212;-75
2022/12/21 05:38:49;;;;;;;4.43;1.83;;;11.60;97.50;;;12.10;66.66;98449.38;4949573;28;113917;-75
2022/12/21 05:41:17;;;;;;;3.43;1.80;;;11.60;97.80;;;12.11;66.61;98451.00;4948749;28;123342;-75
2022/12/21 05:43:44;;;;;;;4.17;2.10;;;11.60;97.50;;;12.10;66.36;98450.19;4947768;28;123242;-74
2022/12/21 05:46:12;;;;;;;4.30;1.60;;;11.60;97.50;;;12.11;66.63;98442.69;4947251;28;114167;-75
2022/12/21 05:48:39;;;;;;;3.77;1.97;;;11.70;97.60;;;12.11;67.01;98448.22;4944015;28;115342;-77
2022/12/21 05:51:11;;;;;;;3.30;1.83;;;11.80;97.60;;;12.14;66.93;98450.34;4952188;28;123722;-75
2022/12/21 05:53:42;;;;;;;3.20;1.90;;;11.70;97.60;;;12.13;66.81;98443.19;4936645;28;123252;-75
2022/12/21 05:56:08;;;;;;;8.30;2.00;;;11.70;97.60;;;12.14;66.66;98444.78;4952011;28;114415;-75
2022/12/21 05:58:37;;;;;;;3.90;1.73;;;11.70;97.70;;;12.15;66.89;98446.44;4952529;28;113932;-75
2022/12/21 06:01:06;;;;;;;4.30;1.50;;;11.70;97.70;;;12.15;66.85;98441.72;4951898;28;123935;-75
2022/12/21 06:03:34;;;;;;;2.90;1.70;;;11.70;97.70;;;12.17;66.84;98446.94;4954363;28;123773;-75
2022/12/21 06:06:15;;;;;;;4.13;2.03;;;11.70;97.70;;;12.20;66.99;98451.81;4957204;28;114224;-75
2022/12/21 06:08:43;;;;;;;2.00;1.70;;;11.70;97.70;;;12.20;66.81;98453.72;4960748;28;114176;-75
2022/12/21 06:11:17;;;;;;;3.43;1.70;;;11.70;97.70;;;12.22;66.56;98446.72;4958111;28;123994;-77
2022/12/21 06:13:45;;;;;;;3.80;1.53;;;11.80;97.70;;;12.24;66.76;98451.94;4956090;28;122061;-76
2022/12/21 06:16:24;;;;;;;2.00;1.53;;;11.80;97.70;;;12.27;66.87;98449.31;4958026;28;113581;-75
2022/12/21 06:18:53;;;;;;;2.23;1.40;;;12.10;97.80;;;12.28;66.91;98439.06;4957668;28;114748;-80
2022/12/21 06:21:20;;;;;;;2.13;1.57;;;11.90;97.80;;;12.31;66.59;98441.97;4957374;28;124507;-76
2022/12/21 06:23:48;;;;;;;3.10;1.90;;;12.00;97.80;;;12.32;66.59;98451.91;4955648;28;123897;-76
2022/12/21 06:26:18;;;;;;;4.60;2.63;;;12.00;97.80;;;12.32;66.82;98449.13;4968689;28;113591;-75
2022/12/21 06:28:50;;;;;;;6.20;1.80;;;11.90;97.80;;;12.34;66.34;98446.84;4950318;28;113423;-77
2022/12/21 06:31:19;;;;;;;3.80;1.87;;;11.80;97.80;;;12.34;66.72;98444.06;4936065;28;124453;-77
2022/12/21 06:33:45;;;;;;;9.73;1.97;;;11.90;97.80;;;12.35;66.58;98451.22;4949090;28;123795;-76
2022/12/21 06:36:12;;;;;;;2.17;1.63;;;11.90;97.90;;;12.35;67.05;98450.41;4948954;28;115165;-76
2022/12/21 06:38:39;;;;;;;2.30;1.63;;;11.90;97.90;;;12.34;66.80;98455.16;4949391;28;114744;-76
2022/12/21 06:41:10;;;;;;;1.90;1.40;;;11.90;97.90;;;12.33;66.98;98459.09;4949860;28;124121;-75
2022/12/21 06:43:38;;;;;;;5.23;2.27;;;11.80;97.90;;;12.31;67.21;98450.28;4950899;28;124280;-75
2022/12/21 06:46:11;;;;;;;6.83;2.87;;;11.80;98.00;;;12.29;67.41;98458.09;4951634;28;113258;-76
2022/12/21 06:48:39;;;;;;;9.63;3.83;;;11.80;98.10;;;12.27;67.43;98446.53;4951153;28;114602;-76
2022/12/21 06:51:19;;;;;;;15.80;7.20;;;11.80;98.10;;;12.30;67.48;98448.63;4948801;28;124077;-76
2022/12/21 06:53:48;;;;;;;13.43;6.87;;;11.80;98.20;;;12.27;67.50;98449.31;4949941;28;123623;-76
2022/12/21 06:56:19;;;;;;;14.63;7.03;;;11.80;98.20;;;12.26;67.58;98442.16;4949489;28;113564;-74
2022/12/21 06:58:47;;;;;;;18.27;8.70;;;11.80;98.20;;;12.27;67.74;98452.06;4946476;28;114281;-75
2022/12/21 07:01:20;;;;;;;20.63;10.27;;;11.80;98.20;;;12.27;67.70;98452.06;4945138;28;124063;-74
2022/12/21 07:03:48;;;;;;;24.50;14.60;;;11.80;98.30;;;12.26;67.82;98447.69;4947368;28;123873;-76
2022/12/21 07:06:19;;;;;;;34.87;19.57;;;11.80;98.30;;;12.25;67.61;98448.84;4950742;28;114327;-77
2022/12/21 07:08:47;;;;;;;32.17;19.63;;;11.80;98.40;;;12.24;67.82;98469.38;4947787;28;114131;-76
2022/12/21 07:11:17;;;;;;;36.47;19.30;;;11.80;98.40;;;12.23;68.03;98456.69;4946324;28;124052;-76
2022/12/21 07:13:46;;;;;;;26.93;15.67;;;11.80;98.50;;;12.23;68.08;98458.63;4929570;28;122726;-76
2022/12/21 07:16:14;;;;;;;26.10;12.70;;;11.80;98.50;;;12.21;68.16;98456.19;4950379;28;113357;-75
2022/12/21 07:18:41;;;;;;;34.70;9.87;;;11.80;98.50;;;12.21;67.97;98467.25;4941168;28;114132;-76
2022/12/21 07:21:13;;;;;;;14.40;7.90;;;11.70;98.50;;;12.22;68.26;98462.53;4947365;28;123944;-75
2022/12/21 07:23:41;;;;;;;11.57;5.57;;;11.80;98.60;;;12.19;68.10;98464.00;4937898;28;123885;-75
2022/12/21 07:26:20;;;;;;;13.70;4.87;;;11.80;98.60;;;12.20;68.31;98468.41;4946841;28;114991;-75
2022/12/21 07:28:47;;;;;;;8.17;3.53;;;11.80;98.70;;;12.20;68.42;98475.88;4948070;28;114878;-75
2022/12/21 07:31:18;;;;;;;6.63;4.37;;;12.30;98.90;;;12.19;68.32;98469.53;4949512;28;123528;-74
2022/12/21 07:33:45;;;;;;;6.20;3.37;;;11.70;98.70;;;12.20;68.42;98476.72;4947758;28;123747;-75
2022/12/21 07:36:12;;;;;;;4.70;2.70;;;11.70;98.70;;;12.19;68.78;98477.84;4949908;28;113524;-76
2022/12/21 07:38:40;;;;;;;4.97;2.77;;;11.90;98.90;;;12.20;68.73;98470.34;4950417;28;113910;-78
2022/12/21 07:41:11;;;;;;;5.23;3.03;;;11.80;98.80;;;12.20;68.51;98471.19;4931749;28;123597;-78
2022/12/21 07:43:38;;;;;;;5.10;2.50;;;11.70;98.80;;;12.20;68.79;98479.50;4948797;28;123887;-78
2022/12/21 07:46:06;;;;;;;6.10;2.60;;;11.80;98.90;;;12.22;68.65;98479.97;4948935;28;114209;-74
2022/12/21 07:48:34;;;;;;;4.80;2.43;;;11.80;98.80;;;12.24;68.58;98479.63;4946272;28;113319;-75
2022/12/21 07:51:01;;;;;;;4.87;2.43;;;11.80;98.80;;;12.24;68.63;98482.41;4943727;28;124307;-76
2022/12/21 07:53:27;;;;;;;3.20;2.30;;;11.80;98.80;;;12.24;68.33;98482.41;4940303;28;124112;-75
2022/12/21 07:56:03;;;;;;;4.33;1.97;;;11.80;98.80;;;12.25;68.67;98484.84;4948779;28;114550;-79
2022/12/21 07:58:30;;;;;;;4.07;2.23;;;11.90;98.90;;;12.26;68.75;98480.94;4943549;28;113632;-75
2022/12/21 08:01:09;;;;;;;6.00;2.57;;;11.80;98.90;;;12.28;68.33;98494.47;4947520;28;123868;-76
2022/12/21 08:03:38;;;;;;;5.53;1.83;;;11.80;98.90;;;12.24;68.47;98483.22;4946821;28;124183;-75
2022/12/21 08:06:06;;;;;;;3.40;1.97;;;11.80;98.90;;;12.24;68.41;98499.84;4949065;28;114241;-74
2022/12/21 08:08:34;;;;;;;6.40;2.00;;;11.80;98.90;;;12.25;68.95;98493.16;4930070;28;113537;-73
2022/12/21 08:11:01;;;;;;;3.27;2.00;;;11.80;99.00;;;12.29;68.89;98494.13;4963437;28;124748;-73
2022/12/21 08:13:29;;;;;;;2.10;1.63;;;11.90;99.10;;;12.33;69.29;98497.03;4947054;28;123616;-73
2022/12/21 08:16:04;;;;;;;6.07;2.00;;;11.90;99.20;;;12.40;68.98;98504.84;4951038;28;115501;-74
2022/12/21 08:18:32;;;;;;;2.83;1.80;;;12.00;99.30;;;12.44;68.93;98503.03;4948036;28;114960;-73
2022/12/21 08:21:02;;;;;;;2.90;1.83;;;12.00;99.20;;;12.46;68.92;98497.97;4949663;28;123284;-75
2022/12/21 08:23:29;;;;;;;2.37;1.83;;;12.00;99.10;;;12.47;68.73;98502.38;4949233;28;123392;-73
2022/12/21 08:26:07;;;;;;;2.03;1.83;;;12.00;99.10;;;12.47;69.21;98513.47;4947287;28;114219;-73
2022/12/21 08:28:34;;;;;;;1.83;1.60;;;12.00;99.10;;;12.47;68.50;98505.97;4948162;28;113983;-75
2022/12/21 08:31:09;;;;;;;2.90;1.70;;;12.00;99.00;;;12.45;68.51;98505.47;4948405;28;124032;-75
2022/12/21 08:33:37;;;;;;;4.23;1.60;;;12.00;99.00;;;12.41;68.43;98503.69;4950327;28;124410;-75
2022/12/21 08:36:09;;;;;;;2.77;1.70;;;12.00;98.90;;;12.37;68.61;98512.66;4951612;28;114216;-74
2022/12/21 08:38:35;;;;;;;3.77;1.60;;;12.00;98.90;;;12.35;68.52;98509.41;4951564;28;114002;-75
2022/12/21 08:41:03;;;;;;;4.50;1.90;;;12.00;98.90;;;12.32;68.67;98507.31;4940261;28;124084;-75
2022/12/21 08:43:32;;;;;;;2.40;1.83;;;12.00;98.80;;;12.32;68.50;98509.25;4947669;28;123881;-74
2022/12/21 08:46:05;;;;;;;3.33;2.00;;;12.00;98.90;;;12.30;68.66;98509.59;4942353;28;115165;-76
2022/12/21 08:48:32;;;;;;;3.13;2.07;;;11.90;98.90;;;12.28;68.65;98514.66;4948615;28;114087;-75
2022/12/21 08:51:01;;;;;;;3.07;1.70;;;11.90;98.90;;;12.26;68.61;98516.94;4946162;28;123926;-75
2022/12/21 08:53:27;;;;;;;2.33;2.13;;;12.10;99.00;;;12.26;68.85;98524.44;4939977;28;123846;-74
2022/12/21 08:55:54;;;;;;;3.33;1.70;;;12.10;99.00;;;12.26;68.46;98516.94;4928466;28;113940;-75
2022/12/21 08:58:23;;;;;;;4.73;2.50;;;12.20;99.00;;;12.26;68.50;98519.72;4943073;28;113912;-74
2022/12/21 09:00:54;;;;;;;3.53;1.60;;;11.90;98.90;;;12.26;68.43;98525.25;4949709;28;123949;-75
2022/12/21 09:03:22;;;;;;;2.70;1.93;;;12.00;98.90;;;12.24;68.39;98522.00;4942506;28;123557;-75
2022/12/21 09:06:02;;;;;;;3.20;1.90;;;11.80;98.80;;;12.25;68.29;98520.88;4946226;28;115255;-76
2022/12/21 09:08:28;;;;;;;3.03;1.67;;;11.80;98.80;;;12.26;68.57;98524.44;4943916;28;114937;-77
2022/12/21 09:11:09;;;;;;;5.37;1.90;;;11.80;98.80;;;12.26;68.19;98525.25;4953251;28;123958;-76
2022/12/21 09:13:39;;;;;;;2.60;1.90;;;11.80;98.80;;;12.24;68.19;98519.22;4949073;28;123392;-78
2022/12/21 09:16:23;;;;;;;2.73;1.60;;;11.80;98.80;;;12.24;68.28;98519.22;4952954;28;113672;-75
2022/12/21 09:18:50;;;;;;;2.20;1.70;;;11.80;98.70;;;12.23;68.45;98503.75;4936685;28;113193;-76
2022/12/21 09:21:20;;;;;;;4.80;2.30;;;11.80;98.70;;;12.25;68.42;98507.03;4946275;28;125193;-75
2022/12/21 09:23:47;;;;;;;3.90;2.47;;;11.80;98.70;;;12.28;68.27;98506.34;4953580;28;123276;-78
2022/12/21 09:26:16;;;;;;;3.97;1.70;;;11.90;98.70;;;12.31;68.05;98510.41;4957209;28;113450;-79
2022/12/21 09:28:43;;;;;;;3.97;2.90;;;11.90;98.70;;;12.32;68.11;98509.25;4954071;28;113334;-76
2022/12/21 09:31:16;;;;;;;2.20;1.63;;;11.90;98.70;;;12.33;68.13;98514.50;4950467;28;124384;-77
2022/12/21 09:33:44;;;;;;;1.63;1.50;;;11.90;98.70;;;12.35;67.88;98517.72;4950562;28;123830;-76
2022/12/21 09:36:13;;;;;;;3.30;2.10;;;11.90;98.70;;;12.37;67.87;98520.97;4957059;28;114854;-76
2022/12/21 09:38:40;;;;;;;3.70;1.73;;;11.90;98.70;;;12.40;67.94;98521.47;4946144;28;113876;-78
2022/12/21 09:41:06;;;;;;;3.03;1.50;;;11.90;98.60;;;12.38;67.95;98522.63;4948080;28;124458;-76
2022/12/21 09:43:48;;;;;;;3.67;1.70;;;11.90;98.60;;;12.40;67.70;98532.56;4946309;28;123319;-77
2022/12/21 09:46:15;;;;;;;3.33;2.13;;;11.90;98.60;;;12.40;67.49;98529.78;4952061;28;114185;-76
2022/12/21 09:48:56;;;;;;;3.13;1.90;;;11.90;98.60;;;12.40;67.51;98519.50;4950952;28;114010;-75
2022/12/21 09:51:25;;;;;;;2.33;1.90;;;12.20;98.60;;;12.40;67.75;98525.03;4949294;28;123461;-77
2022/12/21 09:54:04;;;;;;;4.07;2.17;;;12.00;98.60;;;12.42;67.57;98531.06;4949354;28;125145;-76
2022/12/21 09:56:32;;;;;;;2.23;1.50;;;12.00;98.50;;;12.40;67.52;98530.59;4950101;28;115302;-76
2022/12/21 09:59:04;;;;;;;3.40;1.60;;;11.90;98.50;;;12.40;67.55;98536.13;4950349;28;114165;-76
2022/12/21 10:01:56;;;;;;;3.83;1.97;;;12.00;98.50;;;12.40;67.41;98536.13;4950237;28;123306;-76
2022/12/21 10:04:30;;;;;;;3.17;1.80;;;11.90;98.40;;;12.37;67.26;98531.25;4961586;28;123285;-76
2022/12/21 10:07:15;;;;;;;6.00;2.00;;;11.90;98.40;;;12.37;67.19;98532.06;4953807;28;114292;-75
2022/12/21 10:09:58;;;;;;;3.77;2.00;;;11.90;98.30;;;12.38;67.03;98528.16;4944863;28;114237;-78
2022/12/21 10:12:36;;;;;;;5.00;1.90;;;12.00;98.40;;;12.38;67.18;98535.63;4967600;28;123556;-75
2022/12/21 10:15:38;;;;;;;2.90;2.17;;;11.90;98.30;;;12.35;67.27;98525.22;4948618;28;123949;-75
2022/12/21 10:18:59;;;;;;;2.43;1.83;;;11.90;98.30;;;12.32;67.36;98540.53;4949619;28;114592;-75
2022/12/21 10:21:28;;;;;;;2.30;1.90;;;11.90;98.30;;;12.31;67.45;98544.47;4903295;28;113903;-76
2022/12/21 10:23:56;;;;;;;2.83;1.77;;;11.90;98.30;;;12.32;67.57;98540.53;4948261;28;124721;-75
2022/12/21 10:26:26;;;;;;;2.40;1.50;;;11.90;98.30;;;12.34;67.44;98543.00;4949867;28;123212;-76
2022/12/21 10:29:19;;;;;;;2.60;1.93;;;11.90;98.30;;;12.33;67.38;98531.09;4950251;28;114890;-76
2022/12/21 10:31:47;;;;;;;2.60;2.20;;;11.90;98.30;;;12.35;67.34;98550.16;4936164;28;112876;-77
2022/12/21 10:34:23;;;;;;;4.60;2.23;;;11.90;98.40;;;12.35;67.57;98539.06;4949691;28;124238;-76
2022/12/21 10:36:59;;;;;;;3.50;1.93;;;11.90;98.30;;;12.36;67.54;98530.44;4949285;28;123789;-78
2022/12/21 10:39:28;;;;;;;3.27;2.10;;;11.90;98.40;;;12.37;67.50;98543.13;4929748;28;113452;-78
2022/12/21 10:42:14;;;;;;;2.53;1.87;;;11.90;98.40;;;12.39;67.40;98540.06;4950257;28;113522;-78
2022/12/21 10:44:41;;;;;;;3.33;2.33;;;12.00;98.40;;;12.40;67.47;98527.00;4948103;28;124170;-76
2022/12/21 10:47:14;;;;;;;4.30;2.00;;;12.00;98.40;;;12.43;67.29;98532.69;4948126;28;123882;-74
2022/12/21 10:49:52;;;;;;;4.57;2.60;;;12.00;98.40;;;12.48;67.31;98537.25;4949532;28;114885;-76